createdAt,value
2019-04-26T00:00:44.290Z,68.14
2019-04-26T00:01:44.264Z,68.05
2019-04-26T00:02:44.347Z,68.81
2019-04-26T00:03:44.307Z,68.91
2019-04-26T00:04:44.333Z,68.52
2019-04-26T00:05:44.348Z,68.81
2019-04-26T00:06:44.369Z,68.91
2019-04-26T00:07:44.392Z,69.29
2019-04-26T00:08:44.412Z,69.10
2019-04-26T00:09:44.434Z,69.20
2019-04-26T00:10:44.457Z,69.01
2019-04-26T00:11:44.476Z,69.48
2019-04-26T00:12:44.500Z,69.10
2019-04-26T00:13:44.521Z,69.39
2019-04-26T00:14:44.539Z,69.45
2019-04-26T00:15:44.562Z,69.87
2019-04-26T00:16:44.584Z,70.21
2019-04-26T00:17:44.608Z,69.83
2019-04-26T00:18:44.624Z,70.54
2019-04-26T00:19:44.648Z,70.50
2019-04-26T00:20:44.670Z,70.31
2019-04-26T00:21:44.691Z,70.54
2019-04-26T00:22:44.712Z,70.89
2019-04-26T00:23:44.734Z,70.41
2019-04-26T00:24:44.755Z,70.64
2019-04-26T00:25:44.780Z,70.31
2019-04-26T00:26:44.797Z,70.60
2019-04-26T00:27:44.828Z,70.50
2019-04-26T00:28:44.839Z,70.89
2019-04-26T00:29:44.862Z,70.98
2019-04-26T00:30:44.884Z,70.54
2019-04-26T00:31:44.905Z,70.70
2019-04-26T00:32:44.926Z,70.79
2019-04-26T00:33:44.946Z,70.70
2019-04-26T00:34:44.972Z,70.70
2019-04-26T00:35:47.576Z,70.60
2019-04-26T00:36:45.010Z,71.56
2019-04-26T00:37:45.031Z,71.56
2019-04-26T00:38:45.054Z,71.56
2019-04-26T00:39:45.075Z,71.84
2019-04-26T00:40:45.095Z,71.94
2019-04-26T00:41:45.117Z,71.75
2019-04-26T00:42:45.139Z,71.75
2019-04-26T00:43:45.159Z,71.94
2019-04-26T00:44:45.180Z,71.84
2019-04-26T00:45:45.206Z,72.03
2019-04-26T00:46:45.227Z,72.13
2019-04-26T00:47:45.242Z,71.84
2019-04-26T00:48:45.265Z,71.94
2019-04-26T00:49:45.287Z,71.94
2019-04-26T00:50:45.311Z,72.13
2019-04-26T00:51:45.339Z,72.13
2019-04-26T00:52:45.383Z,72.42
2019-04-26T00:53:45.373Z,72.42
2019-04-26T00:54:45.393Z,72.23
2019-04-26T00:55:45.414Z,72.32
2019-04-26T00:56:45.436Z,72.52
2019-04-26T00:57:45.456Z,73.19
2019-04-26T00:58:45.479Z,72.61
2019-04-26T00:59:45.498Z,73.09
2019-04-26T01:00:45.519Z,73.19
2019-04-26T01:01:45.541Z,72.90
2019-04-26T01:02:45.563Z,73.09
2019-04-26T01:03:45.584Z,72.99
2019-04-26T01:04:45.606Z,73.09
2019-04-26T01:05:45.630Z,73.19
2019-04-26T01:06:45.648Z,72.90
2019-04-26T01:07:45.673Z,72.90
2019-04-26T01:08:45.690Z,73.72
2019-04-26T01:09:45.713Z,73.47
2019-04-26T01:10:45.731Z,73.95
2019-04-26T01:11:45.755Z,74.05
2019-04-26T01:12:45.774Z,73.86
2019-04-26T01:13:45.794Z,74.62
2019-04-26T01:14:45.817Z,74.52
2019-04-26T01:15:45.838Z,74.62
2019-04-26T01:16:45.858Z,74.77
2019-04-26T01:17:45.879Z,75.10
2019-04-26T01:18:45.901Z,75.01
2019-04-26T01:19:45.921Z,75.01
2019-04-26T01:20:45.956Z,75.26
2019-04-26T01:21:46.025Z,75.20
2019-04-26T01:22:46.044Z,75.20
2019-04-26T01:23:46.097Z,75.45
2019-04-26T01:24:46.098Z,75.87
2019-04-26T01:25:46.084Z,75.77
2019-04-26T01:26:46.102Z,75.58
2019-04-26T01:27:46.104Z,76.35
2019-04-26T01:28:46.121Z,76.25
2019-04-26T01:29:46.135Z,75.83
2019-04-26T01:30:46.154Z,76.02
2019-04-26T01:31:46.177Z,76.02
2019-04-26T01:32:46.197Z,76.02
2019-04-26T01:33:46.218Z,75.83
2019-04-26T01:34:46.242Z,75.73
2019-04-26T01:35:46.262Z,76.02
2019-04-26T01:36:46.282Z,76.31
2019-04-26T01:37:46.303Z,76.50
2019-04-26T01:38:46.320Z,76.02
2019-04-26T01:39:46.345Z,76.60
2019-04-26T01:40:46.367Z,77.17
2019-04-26T01:41:46.389Z,76.98
2019-04-26T01:42:46.415Z,77.46
2019-04-26T01:43:46.427Z,77.26
2019-04-26T01:44:46.450Z,77.36
2019-04-26T01:45:46.468Z,77.65
2019-04-26T01:46:46.491Z,77.26
2019-04-26T01:47:46.513Z,77.75
2019-04-26T01:48:46.534Z,77.75
2019-04-26T01:49:46.554Z,77.84
2019-04-26T01:50:46.579Z,78.03
2019-04-26T01:51:46.599Z,78.13
2019-04-26T01:52:46.618Z,78.32
2019-04-26T01:53:46.637Z,78.51
2019-04-26T01:54:46.669Z,77.84
2019-04-26T01:55:46.685Z,78.42
2019-04-26T01:56:46.700Z,78.32
2019-04-26T01:57:46.723Z,77.84
2019-04-26T01:58:46.743Z,78.13
2019-04-26T01:59:46.769Z,78.61
2019-04-26T02:00:46.785Z,79.08
2019-04-26T02:01:46.806Z,79.08
2019-04-26T02:02:46.829Z,78.89
2019-04-26T02:03:46.848Z,79.57
2019-04-26T02:04:46.869Z,79.18
2019-04-26T02:05:46.892Z,79.08
2019-04-26T02:06:46.911Z,79.37
2019-04-26T02:07:46.932Z,78.89
2019-04-26T02:08:46.956Z,78.80
2019-04-26T02:09:46.974Z,78.99
2019-04-26T02:10:46.995Z,79.18
2019-04-26T02:11:47.016Z,79.47
2019-04-26T02:12:47.038Z,79.95
2019-04-26T02:13:47.057Z,80.24
2019-04-26T02:14:47.079Z,79.95
2019-04-26T02:15:47.099Z,80.14
2019-04-26T02:16:47.120Z,80.33
2019-04-26T02:17:47.140Z,80.33
2019-04-26T02:18:47.163Z,79.66
2019-04-26T02:19:47.181Z,79.57
2019-04-26T02:20:47.210Z,80.62
2019-04-26T02:21:47.224Z,80.58
2019-04-26T02:22:47.244Z,80.67
2019-04-26T02:23:47.267Z,80.58
2019-04-26T02:24:47.287Z,80.38
2019-04-26T02:25:47.308Z,80.81
2019-04-26T02:26:47.328Z,80.96
2019-04-26T02:27:47.351Z,81.05
2019-04-26T02:28:47.373Z,80.19
2019-04-26T02:29:47.429Z,80.67
2019-04-26T02:30:47.415Z,81.34
2019-04-26T02:31:47.444Z,81.44
2019-04-26T02:32:47.457Z,81.44
2019-04-26T02:33:47.476Z,81.34
2019-04-26T02:34:47.497Z,81.44
2019-04-26T02:35:47.521Z,81.63
2019-04-26T02:36:57.863Z,81.73
2019-04-26T02:37:47.558Z,81.44
2019-04-26T02:38:47.582Z,81.82
2019-04-26T02:39:47.599Z,81.73
2019-04-26T02:40:47.621Z,81.73
2019-04-26T02:41:47.642Z,82.30
2019-04-26T02:42:47.670Z,82.30
2019-04-26T02:43:47.693Z,82.01
2019-04-26T02:44:47.705Z,82.40
2019-04-26T02:45:47.727Z,82.30
2019-04-26T02:46:47.746Z,82.30
2019-04-26T02:47:47.770Z,82.30
2019-04-26T02:48:47.786Z,82.11
2019-04-26T02:49:47.810Z,82.78
2019-04-26T02:50:47.834Z,82.78
2019-04-26T02:51:47.910Z,82.59
2019-04-26T02:52:47.921Z,82.49
2019-04-26T02:53:47.982Z,82.54
2019-04-26T02:54:47.977Z,82.78
2019-04-26T02:55:47.981Z,82.45
2019-04-26T02:56:47.979Z,82.74
2019-04-26T02:57:48.080Z,82.74
2019-04-26T02:58:47.996Z,82.93
2019-04-26T02:59:48.017Z,82.83
2019-04-26T03:00:48.040Z,83.22
2019-04-26T03:01:48.057Z,83.12
2019-04-26T03:02:48.079Z,82.93
2019-04-26T03:03:48.101Z,83.79
2019-04-26T03:04:48.123Z,84.27
2019-04-26T03:05:48.141Z,84.27
2019-04-26T03:07:02.457Z,84.46
2019-04-26T03:07:48.190Z,84.36
2019-04-26T03:08:48.204Z,83.98
2019-04-26T03:09:48.221Z,84.55
2019-04-26T03:10:48.243Z,84.75
2019-04-26T03:11:48.265Z,85.22
2019-04-26T03:12:48.284Z,85.51
2019-04-26T03:13:48.306Z,85.03
2019-04-26T03:14:48.327Z,85.41
2019-04-26T03:15:48.346Z,85.41
2019-04-26T03:16:48.367Z,85.13
2019-04-26T03:17:48.387Z,85.71
2019-04-26T03:18:48.410Z,85.41
2019-04-26T03:19:48.431Z,86.08
2019-04-26T03:20:48.449Z,85.99
2019-04-26T03:21:48.470Z,85.80
2019-04-26T03:22:48.490Z,85.80
2019-04-26T03:23:57.560Z,85.89
2019-04-26T03:24:48.862Z,85.89
2019-04-26T03:25:48.552Z,86.08
2019-04-26T03:26:48.574Z,86.66
2019-04-26T03:27:48.595Z,85.99
2019-04-26T03:28:48.614Z,85.99
2019-04-26T03:29:48.633Z,86.66
2019-04-26T03:30:52.363Z,86.85
2019-04-26T03:31:53.575Z,86.57
2019-04-26T03:32:51.500Z,86.47
2019-04-26T03:33:53.632Z,86.66
2019-04-26T03:34:54.074Z,87.14
2019-04-26T03:35:56.287Z,87.04
2019-04-26T03:36:48.783Z,87.52
2019-04-26T03:37:48.797Z,87.23
2019-04-26T03:38:48.822Z,87.71
2019-04-26T03:39:48.854Z,86.94
2019-04-26T03:40:48.861Z,87.04
2019-04-26T03:41:48.882Z,86.76
2019-04-26T03:42:48.921Z,87.04
2019-04-26T03:43:48.922Z,87.14
2019-04-26T03:44:48.941Z,87.23
2019-04-26T03:45:48.964Z,87.66
2019-04-26T03:46:48.984Z,87.57
2019-04-26T03:47:49.006Z,87.71
2019-04-26T03:48:49.021Z,87.66
2019-04-26T03:49:49.044Z,87.52
2019-04-26T03:50:49.066Z,87.81
2019-04-26T03:51:49.084Z,87.76
2019-04-26T03:52:49.104Z,87.76
2019-04-26T03:53:49.125Z,87.38
2019-04-26T03:54:49.145Z,87.29
2019-04-26T03:55:49.167Z,87.19
2019-04-26T03:56:49.183Z,87.66
2019-04-26T03:57:49.220Z,87.66
2019-04-26T03:58:49.228Z,87.66
2019-04-26T03:59:49.249Z,88.24
2019-04-26T04:00:49.268Z,88.15
2019-04-26T04:01:49.288Z,88.05
2019-04-26T04:02:49.310Z,87.86
2019-04-26T04:03:49.330Z,87.95
2019-04-26T04:04:49.351Z,88.34
2019-04-26T04:05:49.370Z,88.43
2019-04-26T04:07:03.012Z,89.20
2019-04-26T04:07:51.422Z,89.20
2019-04-26T04:08:49.434Z,89.10
2019-04-26T04:09:49.465Z,88.91
2019-04-26T04:10:49.477Z,88.91
2019-04-26T04:11:49.711Z,88.91
2019-04-26T04:12:49.512Z,89.39
2019-04-26T04:13:51.414Z,89.01
2019-04-26T04:14:49.554Z,88.81
2019-04-26T04:15:49.597Z,89.20
2019-04-26T04:16:49.595Z,89.20
2019-04-26T04:17:50.201Z,89.01
2019-04-26T04:18:49.640Z,89.29
2019-04-26T04:19:49.655Z,89.10
2019-04-26T04:20:49.682Z,89.10
2019-04-26T04:21:49.710Z,89.20
2019-04-26T04:22:49.718Z,89.48
2019-04-26T04:23:49.809Z,89.48
2019-04-26T04:24:49.812Z,89.20
2019-04-26T04:25:49.828Z,88.91
2019-04-26T04:26:49.890Z,89.48
2019-04-26T04:27:49.889Z,89.20
2019-04-26T04:28:49.998Z,89.01
2019-04-26T04:29:55.017Z,89.39
2019-04-26T04:30:49.879Z,89.39
2019-04-26T04:31:49.923Z,89.77
2019-04-26T04:32:50.595Z,89.48
2019-04-26T04:33:49.941Z,89.58
2019-04-26T04:34:49.963Z,90.16
2019-04-26T04:35:49.981Z,89.87
2019-04-26T04:36:51.474Z,89.96
2019-04-26T04:38:05.900Z,89.87
2019-04-26T04:38:50.045Z,90.34
2019-04-26T04:39:50.087Z,89.96
2019-04-26T04:40:50.090Z,90.16
2019-04-26T04:41:50.108Z,90.06
2019-04-26T04:42:50.374Z,90.63
2019-04-26T04:43:50.906Z,90.73
2019-04-26T04:44:50.166Z,90.82
2019-04-26T04:45:50.211Z,90.44
2019-04-26T04:46:51.892Z,90.53
2019-04-26T04:47:52.517Z,90.73
2019-04-26T04:48:51.152Z,90.63
2019-04-26T04:49:50.908Z,90.73
2019-04-26T04:50:51.227Z,90.53
2019-04-26T04:51:51.560Z,90.73
2019-04-26T04:52:50.332Z,90.63
2019-04-26T04:53:51.598Z,90.92
2019-04-26T04:55:03.250Z,91.49
2019-04-26T04:55:50.392Z,91.39
2019-04-26T04:56:50.409Z,91.11
2019-04-26T04:57:50.442Z,91.20
2019-04-26T04:58:50.453Z,91.02
2019-04-26T04:59:50.472Z,91.20
2019-04-26T05:00:51.341Z,90.92
2019-04-26T05:01:50.515Z,90.92
2019-04-26T05:02:50.762Z,90.92
2019-04-26T05:03:51.042Z,91.25
2019-04-26T05:04:51.106Z,91.59
2019-04-26T05:05:51.124Z,91.20
2019-04-26T05:06:51.183Z,91.39
2019-04-26T05:07:51.420Z,91.44
2019-04-26T05:08:51.518Z,91.39
2019-04-26T05:09:51.573Z,91.35
2019-04-26T05:10:50.700Z,91.25
2019-04-26T05:11:51.869Z,91.35
2019-04-26T05:12:50.739Z,91.92
2019-04-26T05:13:50.759Z,91.83
2019-04-26T05:14:50.783Z,91.06
2019-04-26T05:15:50.805Z,91.44
2019-04-26T05:16:50.822Z,91.16
2019-04-26T05:17:51.537Z,91.44
2019-04-26T05:18:50.865Z,91.25
2019-04-26T05:19:50.887Z,90.96
2019-04-26T05:20:51.270Z,91.01
2019-04-26T05:21:50.948Z,91.11
2019-04-26T05:22:51.202Z,91.11
2019-04-26T05:23:51.066Z,91.11
2019-04-26T05:24:51.253Z,90.63
2019-04-26T05:25:51.429Z,90.63
2019-04-26T05:26:51.507Z,90.34
2019-04-26T05:27:51.055Z,90.29
2019-04-26T05:28:51.724Z,90.48
2019-04-26T05:29:52.015Z,90.39
2019-04-26T05:30:51.993Z,90.48
2019-04-26T05:31:51.532Z,90.67
2019-04-26T05:32:51.161Z,90.67
2019-04-26T05:33:51.181Z,90.19
2019-04-26T05:34:51.207Z,89.90
2019-04-26T05:35:51.224Z,89.62
2019-04-26T05:36:51.245Z,90.05
2019-04-26T05:37:51.270Z,89.76
2019-04-26T05:38:51.289Z,89.57
2019-04-26T05:39:51.310Z,89.76
2019-04-26T05:40:51.510Z,89.57
2019-04-26T05:41:51.533Z,89.57
2019-04-26T05:42:51.675Z,89.28
2019-04-26T05:43:51.809Z,89.37
2019-04-26T05:44:51.875Z,89.47
2019-04-26T05:45:51.495Z,89.47
2019-04-26T05:46:51.664Z,89.57
2019-04-26T05:48:06.129Z,89.47
2019-04-26T05:48:51.917Z,89.28
2019-04-26T05:49:51.794Z,89.47
2019-04-26T05:50:51.884Z,89.51
2019-04-26T05:51:52.000Z,89.61
2019-04-26T05:52:51.773Z,89.71
2019-04-26T05:53:52.790Z,89.61
2019-04-26T05:54:52.228Z,89.32
2019-04-26T05:55:52.278Z,89.51
2019-04-26T05:56:52.672Z,89.51
2019-04-26T05:57:52.548Z,89.51
2019-04-26T05:58:52.802Z,88.75
2019-04-26T05:59:52.327Z,88.75
2019-04-26T06:00:52.063Z,89.04
2019-04-26T06:01:53.151Z,88.89
2019-04-26T06:02:52.658Z,88.12
2019-04-26T06:03:52.314Z,88.98
2019-04-26T06:04:52.358Z,88.70
2019-04-26T06:05:52.365Z,88.60
2019-04-26T06:06:53.052Z,88.79
2019-04-26T06:07:52.219Z,88.79
2019-04-26T06:08:52.875Z,88.79
2019-04-26T06:09:52.782Z,89.18
2019-04-26T06:10:52.726Z,88.51
2019-04-26T06:11:52.816Z,89.08
2019-04-26T06:12:52.483Z,88.51
2019-04-26T06:13:52.302Z,88.51
2019-04-26T06:14:52.869Z,88.31
2019-04-26T06:15:52.777Z,88.70
2019-04-26T06:16:53.066Z,88.31
2019-04-26T06:17:53.055Z,88.60
2019-04-26T06:18:53.064Z,88.17
2019-04-26T06:19:53.210Z,87.68
2019-04-26T06:20:52.887Z,88.17
2019-04-26T06:21:52.407Z,87.49
2019-04-26T06:22:53.930Z,87.88
2019-04-26T06:23:52.891Z,87.98
2019-04-26T06:24:53.057Z,87.73
2019-04-26T06:25:54.652Z,87.63
2019-04-26T06:26:52.957Z,87.68
2019-04-26T06:27:53.040Z,87.49
2019-04-26T06:28:53.052Z,86.95
2019-04-26T06:29:53.734Z,86.22
2019-04-26T06:30:53.951Z,85.55
2019-04-26T06:31:53.409Z,85.21
2019-04-26T06:33:00.388Z,83.96
2019-04-26T06:33:52.492Z,83.33
2019-04-26T06:34:53.711Z,82.85
2019-04-26T06:35:53.190Z,82.50
2019-04-26T06:36:53.238Z,82.21
2019-04-26T06:37:53.903Z,81.16
2019-04-26T06:38:54.278Z,81.58
2019-04-26T06:39:53.389Z,81.43
2019-04-26T06:40:53.468Z,79.89
2019-04-26T06:41:54.704Z,79.31
2019-04-26T06:42:54.742Z,79.25
2019-04-26T06:43:52.760Z,78.77
2019-04-26T06:44:52.760Z,79.16
2019-04-26T06:45:52.787Z,78.96
2019-04-26T06:46:52.813Z,78.42
2019-04-26T06:47:52.839Z,77.94
2019-04-26T06:48:52.863Z,75.95
2019-04-26T06:49:52.887Z,76.34
2019-04-26T06:50:52.913Z,75.70
2019-04-26T06:51:52.940Z,76.18
2019-04-26T06:52:52.965Z,74.73
2019-04-26T06:53:52.993Z,74.44
2019-04-26T06:54:53.018Z,73.58
2019-04-26T06:55:53.044Z,73.22
2019-04-26T06:56:53.069Z,72.84
2019-04-26T06:57:53.096Z,72.58
2019-04-26T06:58:53.122Z,70.36
2019-04-26T06:59:53.157Z,70.68
2019-04-26T07:00:53.177Z,71.56
2019-04-26T07:01:53.201Z,71.75
2019-04-26T07:02:53.229Z,71.26
2019-04-26T07:03:53.259Z,71.40
2019-04-26T07:04:53.288Z,70.92
2019-04-26T07:05:53.310Z,69.79
2019-04-26T07:06:53.339Z,69.31
2019-04-26T07:07:53.366Z,68.66
2019-04-26T07:08:57.461Z,69.43
2019-04-26T07:09:53.418Z,68.08
2019-04-26T07:10:53.537Z,67.27
2019-04-26T07:11:53.477Z,67.08
2019-04-26T07:12:53.503Z,67.37
2019-04-26T07:13:53.595Z,67.56
2019-04-26T07:14:53.595Z,68.05
2019-04-26T07:15:53.659Z,68.53
2019-04-26T07:16:53.656Z,67.37
2019-04-26T07:17:53.661Z,67.85
2019-04-26T07:18:53.666Z,68.63
2019-04-26T07:19:53.696Z,68.33
2019-04-26T07:20:53.722Z,68.53
2019-04-26T07:21:53.751Z,67.98
2019-04-26T07:22:53.780Z,68.47
2019-04-26T07:23:53.806Z,67.30
2019-04-26T07:24:53.835Z,67.79
2019-04-26T07:25:53.861Z,67.69
2019-04-26T07:26:53.892Z,68.47
2019-04-26T07:28:03.666Z,68.89
2019-04-26T07:28:53.948Z,67.63
2019-04-26T07:29:53.975Z,67.92
2019-04-26T07:30:54.002Z,67.57
2019-04-26T07:31:54.033Z,68.44
2019-04-26T07:32:54.060Z,68.34
2019-04-26T07:33:54.090Z,68.28
2019-04-26T07:34:54.120Z,67.69
2019-04-26T07:35:54.151Z,66.05
2019-04-26T07:36:54.179Z,66.37
2019-04-26T07:37:54.209Z,65.30
2019-04-26T07:38:54.244Z,64.62
2019-04-26T07:39:54.266Z,63.88
2019-04-26T07:40:54.300Z,63.78
2019-04-26T07:41:54.328Z,61.55
2019-04-26T07:42:54.361Z,61.84
2019-04-26T07:43:54.392Z,62.42
2019-04-26T07:44:54.424Z,62.32
2019-04-26T07:45:54.448Z,62.62
2019-04-26T07:46:54.480Z,62.71
2019-04-26T07:47:54.511Z,61.45
2019-04-26T07:48:54.539Z,61.74
2019-04-26T07:49:54.570Z,62.13
2019-04-26T07:50:54.598Z,62.32
2019-04-26T07:51:54.630Z,61.65
2019-04-26T07:52:54.660Z,62.10
2019-04-26T07:53:54.691Z,62.52
2019-04-26T07:54:54.719Z,61.71
2019-04-26T07:55:54.750Z,61.61
2019-04-26T07:56:54.780Z,61.71
2019-04-26T07:57:54.814Z,62.01
2019-04-26T07:58:54.845Z,61.81
2019-04-26T07:59:54.866Z,62.39
2019-04-26T08:00:54.896Z,62.29
2019-04-26T08:01:54.925Z,63.07
2019-04-26T08:02:54.959Z,63.07
2019-04-26T08:03:54.986Z,63.17
2019-04-26T08:04:55.018Z,63.26
2019-04-26T08:05:55.047Z,63.36
2019-04-26T08:06:55.075Z,62.88
2019-04-26T08:07:55.105Z,62.78
2019-04-26T08:08:55.130Z,62.68
2019-04-26T08:09:59.914Z,62.78
2019-04-26T08:10:55.191Z,63.36
2019-04-26T08:11:55.223Z,62.88
2019-04-26T08:12:55.252Z,63.26
2019-04-26T08:13:55.278Z,63.07
2019-04-26T08:14:55.309Z,63.36
2019-04-26T08:15:55.338Z,63.17
2019-04-26T08:16:55.367Z,63.07
2019-04-26T08:17:55.398Z,62.85
2019-04-26T08:18:55.434Z,62.95
2019-04-26T08:19:57.541Z,63.56
2019-04-26T08:20:55.521Z,63.53
2019-04-26T08:21:55.588Z,62.95
2019-04-26T08:22:55.578Z,63.23
2019-04-26T08:23:56.572Z,62.85
2019-04-26T08:24:55.599Z,62.36
2019-04-26T08:25:55.629Z,62.16
2019-04-26T08:27:08.094Z,62.36
2019-04-26T08:27:55.685Z,62.46
2019-04-26T08:28:56.578Z,62.07
2019-04-26T08:29:55.742Z,62.65
2019-04-26T08:30:55.770Z,62.95
2019-04-26T08:31:57.854Z,62.52
2019-04-26T08:32:55.828Z,62.72
2019-04-26T08:33:55.858Z,63.01
2019-04-26T08:34:55.885Z,63.49
2019-04-26T08:35:55.917Z,63.59
2019-04-26T08:36:57.256Z,63.78
2019-04-26T08:37:55.968Z,63.59
2019-04-26T08:38:56.000Z,63.59
2019-04-26T08:39:56.103Z,63.20
2019-04-26T08:40:56.061Z,63.59
2019-04-26T08:41:56.084Z,63.53
2019-04-26T08:42:57.323Z,63.20
2019-04-26T08:43:56.143Z,64.37
2019-04-26T08:44:56.173Z,63.98
2019-04-26T08:46:02.761Z,64.27
2019-04-26T08:46:57.077Z,64.17
2019-04-26T08:47:56.259Z,64.85
2019-04-26T08:48:58.160Z,65.05
2019-04-26T08:49:56.319Z,65.37
2019-04-26T08:50:56.343Z,65.56
2019-04-26T08:51:57.459Z,64.50
2019-04-26T08:52:57.868Z,63.72
2019-04-26T08:53:56.431Z,63.23
2019-04-26T08:54:56.460Z,62.65
2019-04-26T08:55:56.490Z,62.65
2019-04-26T08:56:56.522Z,62.39
2019-04-26T08:57:56.546Z,62.19
2019-04-26T08:58:56.581Z,61.42
2019-04-26T08:59:56.604Z,61.04
2019-04-26T09:00:56.635Z,61.25
2019-04-26T09:01:56.664Z,61.35
2019-04-26T09:02:56.693Z,60.48
2019-04-26T09:03:56.730Z,60.38
2019-04-26T09:04:56.750Z,60.00
2019-04-26T09:05:56.784Z,59.70
2019-04-26T09:06:56.810Z,60.19
2019-04-26T09:07:57.483Z,60.68
2019-04-26T09:08:56.871Z,61.25
2019-04-26T09:09:57.687Z,60.97
2019-04-26T09:10:56.930Z,61.45
2019-04-26T09:11:59.879Z,61.16
2019-04-26T09:12:56.986Z,61.55
2019-04-26T09:13:57.017Z,62.32
2019-04-26T09:14:57.052Z,61.94
2019-04-26T09:15:57.109Z,61.55
2019-04-26T09:16:57.109Z,60.58
2019-04-26T09:17:57.135Z,60.38
2019-04-26T09:18:59.597Z,60.38
2019-04-26T09:19:58.289Z,60.28
2019-04-26T09:20:57.220Z,60.28
2019-04-26T09:22:00.188Z,60.68
2019-04-26T09:23:03.727Z,60.77
2019-04-26T09:23:57.313Z,60.58
2019-04-26T09:24:59.422Z,60.38
2019-04-26T09:25:59.400Z,60.38
2019-04-26T09:26:57.438Z,60.38
2019-04-26T09:27:58.927Z,60.38
2019-04-26T09:28:57.592Z,60.68
2019-04-26T09:30:00.553Z,60.38
2019-04-26T09:30:57.517Z,60.80
2019-04-26T09:31:57.548Z,60.12
2019-04-26T09:32:58.340Z,60.22
2019-04-26T09:33:57.606Z,60.22
2019-04-26T09:34:57.636Z,60.00
2019-04-26T09:35:57.666Z,59.92
2019-04-26T09:36:57.701Z,59.25
2019-04-26T09:37:57.726Z,59.54
2019-04-26T09:38:57.756Z,59.25
2019-04-26T09:40:09.389Z,59.15
2019-04-26T09:41:00.467Z,59.54
2019-04-26T09:42:01.221Z,59.67
2019-04-26T09:42:59.397Z,60.12
2019-04-26T09:43:58.839Z,59.76
2019-04-26T09:44:57.935Z,59.47
2019-04-26T09:45:57.966Z,59.15
2019-04-26T09:46:57.999Z,59.74
2019-04-26T09:47:58.028Z,59.92
2019-04-26T09:48:58.056Z,59.92
2019-04-26T09:49:58.088Z,59.92
2019-04-26T09:50:58.116Z,59.83
2019-04-26T09:51:58.150Z,59.92
2019-04-26T09:52:58.385Z,59.92
2019-04-26T09:53:58.205Z,60.02
2019-04-26T09:54:58.237Z,60.22
2019-04-26T09:55:58.269Z,60.02
2019-04-26T09:56:58.293Z,60.02
2019-04-26T09:57:58.323Z,60.41
2019-04-26T09:59:01.535Z,60.51
2019-04-26T09:59:58.386Z,61.58
2019-04-26T10:00:58.412Z,62.26
2019-04-26T10:01:59.502Z,62.74
2019-04-26T10:02:58.472Z,62.16
2019-04-26T10:03:58.502Z,61.29
2019-04-26T10:04:58.536Z,61.29
2019-04-26T10:05:58.561Z,60.80
2019-04-26T10:06:59.486Z,60.51
2019-04-26T10:07:58.622Z,60.51
2019-04-26T10:08:58.651Z,60.74
2019-04-26T10:10:00.896Z,60.35
2019-04-26T10:10:58.718Z,60.05
2019-04-26T10:11:58.745Z,59.31
2019-04-26T10:12:58.778Z,58.82
2019-04-26T10:13:58.805Z,58.14
2019-04-26T10:14:58.840Z,58.17
2019-04-26T10:16:02.656Z,57.59
2019-04-26T10:16:58.911Z,57.32
2019-04-26T10:17:58.938Z,57.22
2019-04-26T10:18:59.419Z,57.45
2019-04-26T10:19:59.003Z,56.96
2019-04-26T10:20:59.039Z,56.50
2019-04-26T10:21:59.070Z,56.21
2019-04-26T10:22:59.104Z,55.62
2019-04-26T10:23:59.136Z,55.75
2019-04-26T10:25:02.377Z,56.04
2019-04-26T10:25:59.209Z,55.16
2019-04-26T10:27:02.935Z,55.16
2019-04-26T10:27:59.296Z,55.19
2019-04-26T10:28:59.394Z,55.48
2019-04-26T10:30:07.672Z,55.32
2019-04-26T10:30:59.425Z,54.34
2019-04-26T10:31:59.444Z,53.27
2019-04-26T10:33:02.231Z,52.70
2019-04-26T10:33:59.495Z,52.93
2019-04-26T10:34:59.525Z,52.83
2019-04-26T10:35:59.563Z,52.34
2019-04-26T10:37:01.429Z,51.68
2019-04-26T10:37:59.635Z,51.59
2019-04-26T10:38:59.776Z,51.32
2019-04-26T10:39:59.710Z,50.95
2019-04-26T10:40:59.745Z,50.27
2019-04-26T10:41:59.786Z,50.07
2019-04-26T10:42:59.824Z,49.80
2019-04-26T10:43:59.863Z,49.51
2019-04-26T10:44:59.897Z,49.24
2019-04-26T10:45:59.935Z,49.14
2019-04-26T10:47:04.232Z,48.38
2019-04-26T10:48:00.020Z,48.68
2019-04-26T10:49:08.991Z,48.09
2019-04-26T10:50:00.089Z,47.91
2019-04-26T10:51:03.296Z,47.81
2019-04-26T10:52:00.167Z,47.35
2019-04-26T10:53:00.204Z,47.25
2019-04-26T10:54:01.606Z,46.20
2019-04-26T10:55:00.303Z,46.12
2019-04-26T10:56:00.321Z,45.92
2019-04-26T10:57:00.361Z,45.63
2019-04-26T10:58:00.401Z,44.96
2019-04-26T10:59:00.440Z,44.47
2019-04-26T11:00:00.486Z,44.59
2019-04-26T11:01:00.520Z,44.10
2019-04-26T11:02:00.560Z,44.30
2019-04-26T11:03:04.540Z,44.42
2019-04-26T11:04:00.640Z,43.83
2019-04-26T11:05:00.680Z,44.15
2019-04-26T11:06:00.719Z,43.75
2019-04-26T11:07:01.962Z,43.26
2019-04-26T11:08:00.800Z,42.89
2019-04-26T11:09:00.842Z,42.71
2019-04-26T11:10:02.935Z,42.12
2019-04-26T11:11:00.921Z,42.02
2019-04-26T11:12:00.962Z,42.02
2019-04-26T11:13:01.000Z,42.04
2019-04-26T11:14:01.043Z,41.85
2019-04-26T11:15:01.083Z,41.65
2019-04-26T11:16:02.406Z,41.94
2019-04-26T11:17:01.164Z,41.85
2019-04-26T11:18:01.217Z,41.67
2019-04-26T11:19:02.206Z,41.57
2019-04-26T11:20:01.324Z,41.59
2019-04-26T11:21:01.369Z,41.20
2019-04-26T11:22:01.367Z,40.92
2019-04-26T11:23:01.407Z,40.63
2019-04-26T11:24:01.450Z,39.54
2019-04-26T11:25:01.489Z,39.94
2019-04-26T11:26:01.775Z,40.05
2019-04-26T11:27:01.580Z,40.15
2019-04-26T11:28:01.618Z,40.17
2019-04-26T11:29:01.656Z,39.58
2019-04-26T11:30:11.200Z,39.48
2019-04-26T11:31:01.737Z,39.48
2019-04-26T11:32:02.659Z,39.18
2019-04-26T11:33:01.819Z,39.20
2019-04-26T11:35:02.141Z,39.00
2019-04-26T11:36:03.408Z,38.90
2019-04-26T11:37:01.995Z,38.61
2019-04-26T11:38:02.025Z,38.51
2019-04-26T11:39:05.533Z,38.39
2019-04-26T11:40:02.106Z,38.49
2019-04-26T11:40:14.006Z,39.00
2019-04-26T11:41:06.290Z,38.51
2019-04-26T11:42:02.189Z,37.80
2019-04-26T11:43:02.229Z,38.00
2019-04-26T11:44:02.274Z,37.80
2019-04-26T11:45:06.256Z,38.28
2019-04-26T11:46:04.393Z,38.28
2019-04-26T11:47:03.264Z,38.26
2019-04-26T11:48:03.327Z,38.45
2019-04-26T11:49:03.165Z,38.75
2019-04-26T11:50:02.547Z,38.83
2019-04-26T11:51:02.549Z,38.64
2019-04-26T11:52:02.786Z,39.20
2019-04-26T11:53:06.095Z,39.40
2019-04-26T11:54:02.671Z,39.39
2019-04-26T11:55:02.709Z,39.58
2019-04-26T11:56:04.529Z,39.86
2019-04-26T11:57:02.789Z,40.63
2019-04-26T11:58:02.826Z,40.43
2019-04-26T11:59:02.867Z,40.70
2019-04-26T12:00:05.504Z,40.88
2019-04-26T12:01:02.940Z,41.35
2019-04-26T12:02:02.976Z,41.72
2019-04-26T12:03:03.020Z,42.21
2019-04-26T12:04:03.054Z,42.19
2019-04-26T12:05:03.098Z,42.79
2019-04-26T12:06:03.126Z,42.86
2019-04-26T12:07:03.235Z,43.55
2019-04-26T12:08:03.235Z,43.82
2019-04-26T12:09:03.313Z,43.41
2019-04-26T12:10:05.960Z,43.31
2019-04-26T12:11:03.309Z,43.99
2019-04-26T12:12:04.951Z,43.88
2019-04-26T12:13:05.975Z,44.07
2019-04-26T12:14:04.077Z,44.44
2019-04-26T12:15:03.832Z,44.13
2019-04-26T12:16:03.547Z,43.81
2019-04-26T12:17:03.516Z,44.30
2019-04-26T12:18:05.614Z,44.48
2019-04-26T12:19:03.586Z,44.67
2019-04-26T12:20:03.623Z,44.96
2019-04-26T12:21:03.654Z,45.33
2019-04-26T12:22:04.276Z,45.14
2019-04-26T12:23:03.724Z,45.53
2019-04-26T12:24:03.756Z,45.53
2019-04-26T12:25:07.094Z,45.43
2019-04-26T12:26:03.824Z,45.61
2019-04-26T12:27:03.885Z,45.43
2019-04-26T12:28:06.123Z,45.33
2019-04-26T12:29:03.921Z,45.16
2019-04-26T12:30:03.957Z,45.08
2019-04-26T12:31:03.991Z,44.69
2019-04-26T12:32:04.026Z,44.32
2019-04-26T12:33:04.063Z,44.13
2019-04-26T12:34:04.096Z,44.42
2019-04-26T12:35:04.132Z,44.32
2019-04-26T12:36:04.172Z,43.84
2019-04-26T12:37:04.204Z,44.03
2019-04-26T12:38:04.238Z,44.23
2019-04-26T12:39:04.276Z,43.85
2019-04-26T12:40:07.202Z,44.05
2019-04-26T12:41:04.342Z,44.15
2019-04-26T12:42:04.382Z,44.17
2019-04-26T12:43:04.414Z,44.17
2019-04-26T12:44:04.450Z,44.07
2019-04-26T12:45:04.488Z,44.09
2019-04-26T12:46:04.520Z,43.90
2019-04-26T12:47:05.222Z,44.17
2019-04-26T12:48:04.599Z,44.19
2019-04-26T12:49:04.631Z,43.90
2019-04-26T12:50:04.665Z,44.58
2019-04-26T12:51:08.078Z,44.19
2019-04-26T12:52:04.736Z,43.98
2019-04-26T12:53:04.773Z,43.88